KTEX Airport Information

Runway Information
Runway 09 Length 6870 ft width 100 ft
Elevation 9061 ft Threshold 0 ft Heading 105
Runway 27 Length 6870 ft Width 100 ft
Elevation 9078 ft Threshold 0 ft Heading 285
Airport Frequencies
Type CNTR Name DENVER CNT Frequency 125.35 MHZ
Type FSS Name DENVER RDO Frequency 122.15 MHZ
Type UNIC Name CTAF/UNICO Frequency 123 MHZ
Airport Navaids
Airport Weather Information & NOTAM
ADDS - METARS form results

(0950 UTC 23 July 2018)
 
METAR text: KTEX 230935Z AUTO 00000KT 10SM CLR 13/07 A3055 RMK AO2
Conditions at: KTEX (TELLURIDE REGION, CO, US) observed 0935 UTC 23 July 2018
Temperature: 13.0°C (55°F)
Dewpoint: 7.0°C (45°F) [RH = 67%]
Pressure (altimeter): 30.55 inches Hg (1034.6 mb)
Winds: calm
Visibility: 10 or more miles (16+ km)
Ceiling: at least 12,000 feet AGL
Clouds: sky clear below 12,000 feet AGL
Weather: automated observation with no human augmentation;
there may or may not be significant weather present at this time

METAR text: KTEX 230915Z AUTO 13004KT 10SM CLR 13/07 A3055 RMK AO2
Conditions at: KTEX (TELLURIDE REGION, CO, US) observed 0915 UTC 23 July 2018
Temperature: 13.0°C (55°F)
Dewpoint: 7.0°C (45°F) [RH = 67%]
Pressure (altimeter): 30.55 inches Hg (1034.6 mb)
Winds: from the SE (130 degrees) at 5 MPH (4 knots; 2.1 m/s)
Visibility: 10 or more miles (16+ km)
Ceiling: at least 12,000 feet AGL
Clouds: sky clear below 12,000 feet AGL
Weather: automated observation with no human augmentation;
there may or may not be significant weather present at this time

METAR text: KTEX 230855Z AUTO 16003KT 10SM CLR 15/08 A3054 RMK AO2
Conditions at: KTEX (TELLURIDE REGION, CO, US) observed 0855 UTC 23 July 2018
Temperature: 15.0°C (59°F)
Dewpoint: 8.0°C (46°F) [RH = 63%]
Pressure (altimeter): 30.54 inches Hg (1034.3 mb)
Winds: from the SSE (160 degrees) at 3 MPH (3 knots; 1.6 m/s)
Visibility: 10 or more miles (16+ km)
Ceiling: at least 12,000 feet AGL
Clouds: sky clear below 12,000 feet AGL
Weather: automated observation with no human augmentation;
there may or may not be significant weather present at this time